Time;durP1;ratioP1;P1;durP2;ratioP2;P2;SDS_P1;SDS_P2;PMS_P1;PMS_P2;Temp;Humidity;BMP_temperature;BMP_pressure;BME280_temperature;BME280_humidity;BME280_pressure;Samples;Min_cycle;Max_cycle;Signal;HPM_P1;HPM_P2
2022/05/25 00:02:13;;;;;;;1.27;1.17;;;;;;;17.42;73.34;99131.38;4935367;29;20047;-71
2022/05/25 00:04:44;;;;;;;1.13;1.02;;;;;;;17.41;73.25;99132.31;4936471;29;20055;-70
2022/05/25 00:07:14;;;;;;;2.35;0.80;;;;;;;17.38;73.22;99132.41;4935615;29;20386;-71
2022/05/25 00:09:43;;;;;;;0.50;0.50;;;;;;;17.36;73.06;99131.63;4936523;29;20510;-72
2022/05/25 00:12:13;;;;;;;1.70;1.60;;;;;;;17.39;73.15;99138.41;4935379;29;20134;-69
2022/05/25 00:14:43;;;;;;;0.70;0.70;;;;;;;17.35;73.39;99137.69;4936385;29;20043;-70
2022/05/25 00:17:12;;;;;;;0.98;0.95;;;;;;;17.14;73.78;99143.63;4935441;29;20055;-69
2022/05/25 00:22:40;;;;;;;1.23;1.03;;;;;;;16.67;74.96;99116.94;4935159;29;20147;-69
2022/05/25 00:25:11;;;;;;;1.50;1.20;;;;;;;16.83;75.06;99135.28;4936042;29;20502;-70
2022/05/25 00:27:40;;;;;;;2.08;1.15;;;;;;;16.87;74.83;99138.59;4935194;29;20107;-70
2022/05/25 00:30:11;;;;;;;0.88;0.80;;;;;;;16.90;74.81;99139.31;4935785;29;20048;-69
2022/05/25 00:32:41;;;;;;;1.23;1.13;;;;;;;16.93;74.94;99138.38;4935099;29;20064;-69
2022/05/25 00:35:11;;;;;;;;;;;;;;;16.97;74.54;99139.94;4936799;29;20479;-70
2022/05/25 00:37:42;;;;;;;1.20;1.10;;;;;;;16.98;74.33;99141.63;4934954;29;19982;-70
2022/05/25 00:40:14;;;;;;;0.93;0.77;;;;;;;16.96;74.33;99156.31;4935834;29;20052;-70
2022/05/25 00:42:44;;;;;;;0.63;0.63;;;;;;;16.98;74.18;99157.09;4935017;29;20127;-70
2022/05/25 00:45:14;;;;;;;1.77;1.23;;;;;;;16.97;73.96;99161.41;4936188;29;20056;-69
2022/05/25 00:47:46;;;;;;;1.17;1.02;;;;;;;16.91;74.35;99156.50;4934993;29;20054;-69
2022/05/25 00:50:20;;;;;;;1.10;1.05;;;;;;;16.91;74.39;99159.06;4935704;29;20063;-69
2022/05/25 00:52:52;;;;;;;1.42;0.90;;;;;;;16.94;74.38;99166.66;4935018;29;20062;-70
2022/05/25 00:55:27;;;;;;;1.13;1.02;;;;;;;16.90;74.70;99180.56;4936037;29;20056;-69
2022/05/25 00:57:58;;;;;;;2.75;1.20;;;;;;;16.89;74.85;99173.75;4935939;29;20103;-69
2022/05/25 01:00:30;;;;;;;3.90;1.40;;;;;;;16.94;74.63;99171.81;4939460;29;20111;-69
2022/05/25 01:03:04;;;;;;;1.10;1.00;;;;;;;16.99;74.19;99176.84;4938761;29;20071;-69
2022/05/25 01:05:38;;;;;;;1.10;0.95;;;;;;;17.06;74.38;99171.41;4939329;29;20051;-69
2022/05/25 01:08:28;;;;;;;0.80;0.80;;;;;;;17.12;74.01;99166.03;4938612;29;20043;-70
2022/05/25 01:11:12;;;;;;;0.80;0.80;;;;;;;17.17;73.71;99169.31;4938909;29;20090;-70
2022/05/25 01:13:51;;;;;;;1.23;1.13;;;;;;;17.15;73.73;99159.94;4939402;29;20078;-69
2022/05/25 01:16:42;;;;;;;1.13;1.02;;;;;;;17.18;73.70;99162.41;4938301;29;20059;-69
2022/05/25 01:19:29;;;;;;;1.73;1.60;;;;;;;17.19;73.62;99166.66;4939159;29;20056;-69
2022/05/25 01:22:08;;;;;;;0.75;0.75;;;;;;;17.17;73.60;99158.13;4938148;29;20064;-70
2022/05/25 01:24:52;;;;;;;0.75;0.75;;;;;;;17.15;73.76;99158.22;4939527;29;20058;-68
2022/05/25 01:27:34;;;;;;;0.68;0.68;;;;;;;17.16;73.74;99166.75;4936737;29;20492;-70
2022/05/25 01:30:13;;;;;;;0.70;0.70;;;;;;;17.14;73.77;99172.00;4939015;29;20048;-69
2022/05/25 01:32:56;;;;;;;0.70;0.70;;;;;;;17.04;74.08;99168.03;4937120;29;20063;-69
2022/05/25 01:35:35;;;;;;;3.70;0.50;;;;;;;16.95;74.55;99163.22;4939139;29;20502;-70
2022/05/25 01:38:14;;;;;;;0.60;0.60;;;;;;;16.86;74.92;99163.53;4934203;29;20060;-69
2022/05/25 01:40:49;;;;;;;0.57;0.57;;;;;;;16.56;75.03;99133.63;4919731;29;20103;-69
2022/05/25 01:43:22;;;;;;;1.48;1.23;;;;;;;16.75;75.52;99168.19;4919141;29;20063;-69
2022/05/25 01:45:56;;;;;;;1.35;1.10;;;;;;;15.87;75.56;99013.19;4919588;29;20384;-69
2022/05/25 01:48:29;;;;;;;1.13;1.00;;;;;;;16.80;75.51;99175.78;4919580;29;20470;-69
2022/05/25 01:51:02;;;;;;;1.40;1.27;;;;;;;16.69;75.51;99169.28;4919280;29;20560;-69
2022/05/25 01:53:35;;;;;;;1.15;1.02;;;;;;;16.62;76.14;99164.38;4919453;29;20426;-69
2022/05/25 01:56:07;;;;;;;0.95;0.95;;;;;;;16.63;75.91;99156.56;4919001;29;20140;-69
2022/05/25 01:58:40;;;;;;;1.02;1.02;;;;;;;16.71;76.08;99158.91;4919017;29;20120;-69
2022/05/25 02:01:15;;;;;;;1.95;1.55;;;;;;;16.83;76.07;99157.63;4919078;29;20072;-69
2022/05/25 02:07:00;;;;;;;1.75;1.65;;;;;;;16.85;76.04;99145.53;4919161;29;20052;-69
2022/05/25 02:10:06;;;;;;;1.02;0.98;;;;;;;16.77;75.79;99144.06;4918102;29;20565;-68
2022/05/25 02:12:58;;;;;;;1.15;1.05;;;;;;;16.74;76.10;99143.34;4918266;29;20051;-69
2022/05/25 02:15:36;;;;;;;1.30;1.20;;;;;;;16.70;76.52;99136.59;4919496;29;20051;-68
2022/05/25 02:18:12;;;;;;;1.50;1.08;;;;;;;16.62;77.20;99149.75;4918432;29;20049;-69
2022/05/25 02:20:48;;;;;;;1.40;1.30;;;;;;;16.54;77.32;99145.72;4919211;29;20060;-68
2022/05/25 02:23:31;;;;;;;1.52;1.25;;;;;;;16.51;77.84;99153.53;4918254;29;20052;-69
2022/05/25 02:26:07;;;;;;;0.90;0.90;;;;;;;16.48;77.91;99140.75;4919051;29;20459;-68
2022/05/25 02:28:41;;;;;;;3.55;1.60;;;;;;;16.32;77.88;99119.81;4918537;29;20578;-68
2022/05/25 02:31:13;;;;;;;1.10;1.00;;;;;;;16.33;78.42;99152.41;4918855;29;20484;-69
2022/05/25 02:33:47;;;;;;;3.80;1.35;;;;;;;16.26;78.62;99150.94;4918570;29;20088;-69
2022/05/25 02:36:17;;;;;;;1.88;1.40;;;;;;;16.25;78.52;99148.38;4918594;29;20542;-69
2022/05/25 02:38:46;;;;;;;0.80;0.77;;;;;;;16.17;79.22;99150.38;4899542;29;20075;-69
2022/05/25 02:41:29;;;;;;;1.05;0.95;;;;;;;16.08;79.53;99146.34;4899855;29;20049;-69
2022/05/25 02:43:59;;;;;;;2.53;1.67;;;;;;;16.07;79.78;99145.53;4899896;29;20103;-68
2022/05/25 02:46:28;;;;;;;0.70;0.70;;;;;;;16.02;79.59;99155.13;4899194;29;20531;-68
2022/05/25 02:48:58;;;;;;;;;;;;;;;16.05;80.13;99162.72;4899856;29;20068;-68
2022/05/25 02:51:28;;;;;;;1.17;1.02;;;;;;;16.08;80.26;99167.78;4899062;29;19951;-69
2022/05/25 02:53:57;;;;;;;1.42;1.05;;;;;;;16.05;80.06;99167.88;4899572;29;20057;-68
2022/05/25 02:56:26;;;;;;;4.20;1.08;;;;;;;16.01;79.81;99176.59;4899006;29;20055;-68
2022/05/25 02:58:55;;;;;;;1.40;1.25;;;;;;;15.95;80.13;99176.78;4899110;29;20049;-69
2022/05/25 03:01:24;;;;;;;0.55;0.55;;;;;;;15.77;80.09;99145.59;4899032;29;20053;-68
2022/05/25 03:03:53;;;;;;;1.23;1.05;;;;;;;15.89;80.59;99171.81;4899229;29;20049;-69
2022/05/25 03:06:24;;;;;;;5.70;1.83;;;;;;;15.94;80.81;99167.38;4899014;29;20135;-68
2022/05/25 03:08:53;;;;;;;1.17;1.00;;;;;;;16.02;80.89;99168.00;4898896;29;20426;-69
2022/05/25 03:11:23;;;;;;;1.60;1.48;;;;;;;16.02;80.86;99162.84;4899140;29;20053;-69
2022/05/25 03:13:52;;;;;;;1.27;1.17;;;;;;;15.96;81.11;99152.72;4898847;29;20168;-68
2022/05/25 03:16:22;;;;;;;1.27;1.17;;;;;;;16.02;81.08;99162.84;4898687;29;20052;-68
2022/05/25 03:18:52;;;;;;;1.85;1.38;;;;;;;16.08;81.02;99167.78;4898810;29;20063;-68
2022/05/25 03:21:21;;;;;;;0.95;0.70;;;;;;;16.20;80.84;99163.13;4898258;29;20056;-69
2022/05/25 03:23:52;;;;;;;1.48;1.38;;;;;;;16.28;80.25;99167.16;4898988;29;20507;-68
2022/05/25 03:26:21;;;;;;;1.60;1.48;;;;;;;16.39;80.51;99169.38;4897762;29;20056;-69
2022/05/25 03:28:50;;;;;;;1.50;1.33;;;;;;;16.46;79.97;99173.47;4898443;29;20052;-69
2022/05/25 03:31:18;;;;;;;1.27;1.05;;;;;;;16.49;79.63;99170.78;4898858;29;20095;-69
2022/05/25 03:33:47;;;;;;;3.10;0.87;;;;;;;16.56;79.54;99180.00;4898672;29;20056;-70
2022/05/25 03:36:16;;;;;;;2.17;1.10;;;;;;;16.60;79.13;99171.31;4898324;29;20522;-70
2022/05/25 03:38:45;;;;;;;1.20;1.10;;;;;;;16.66;78.90;99181.41;4917145;29;20518;-70
2022/05/25 03:41:17;;;;;;;0.82;0.82;;;;;;;16.71;78.60;99174.34;4917582;29;20369;-70
2022/05/25 03:43:47;;;;;;;0.98;0.88;;;;;;;16.73;78.57;99183.72;4916883;29;20107;-69
2022/05/25 03:46:16;;;;;;;0.77;0.77;;;;;;;16.75;78.36;99181.09;4917350;29;20143;-69
2022/05/25 03:48:45;;;;;;;1.03;0.97;;;;;;;16.80;77.97;99186.09;4917032;29;20065;-69
2022/05/25 03:51:14;;;;;;;2.40;1.03;;;;;;;16.82;77.83;99181.75;4917121;29;20059;-69
2022/05/25 03:53:43;;;;;;;1.13;1.02;;;;;;;16.86;77.84;99184.16;4917089;29;20799;-69
2022/05/25 03:56:25;;;;;;;1.13;1.03;;;;;;;16.82;78.11;99181.75;4917077;29;20502;-69
2022/05/25 03:58:54;;;;;;;2.25;1.67;;;;;;;16.74;77.82;99184.56;4916909;29;20056;-68
2022/05/25 04:01:23;;;;;;;4.43;1.52;;;;;;;16.69;78.26;99181.31;4917105;29;20055;-68
2022/05/25 04:03:52;;;;;;;1.40;1.17;;;;;;;16.63;78.46;99186.66;4916733;29;20087;-69
2022/05/25 04:06:21;;;;;;;1.58;1.48;;;;;;;16.56;78.59;99190.31;4917319;29;20040;-69
2022/05/25 04:08:50;;;;;;;0.80;0.80;;;;;;;16.56;79.21;99195.47;4916693;29;20052;-69
2022/05/25 04:11:19;;;;;;;0.82;0.82;;;;;;;16.57;79.27;99192.00;4917179;29;20078;-69
2022/05/25 04:13:50;;;;;;;0.88;0.88;;;;;;;16.50;79.06;99191.34;4916840;29;20525;-68
2022/05/25 04:16:20;;;;;;;0.68;0.68;;;;;;;16.43;79.66;99192.44;4916976;29;20063;-68
2022/05/25 04:18:49;;;;;;;;;;;;;;;16.35;80.10;99190.97;4917207;29;20044;-67
2022/05/25 04:21:18;;;;;;;1.35;1.25;;;;;;;16.24;80.34;99199.06;4917286;29;19923;-68
2022/05/25 04:23:47;;;;;;;1.98;1.77;;;;;;;16.24;80.74;99198.22;4916766;29;20056;-68
2022/05/25 04:26:16;;;;;;;1.50;1.40;;;;;;;16.26;81.25;99206.72;4916873;29;20044;-68
2022/05/25 04:28:45;;;;;;;1.73;1.45;;;;;;;16.23;81.46;99206.81;4916654;29;20522;-68
2022/05/25 04:31:16;;;;;;;0.70;0.70;;;;;;;16.14;81.81;99209.69;4916931;29;20048;-68
2022/05/25 04:33:45;;;;;;;6.45;1.55;;;;;;;16.08;82.04;99202.97;4918634;29;20052;-68
2022/05/25 04:36:14;;;;;;;1.93;1.70;;;;;;;16.08;82.10;99201.25;4920962;29;20454;-70
2022/05/25 04:38:43;;;;;;;1.70;1.35;;;;;;;16.14;82.28;99204.53;4919948;29;20311;-70
2022/05/25 04:41:13;;;;;;;1.35;1.25;;;;;;;16.16;82.70;99205.31;4920907;29;20063;-70
2022/05/25 04:43:43;;;;;;;1.40;1.30;;;;;;;16.11;82.66;99202.91;4920343;29;20451;-69
2022/05/25 04:46:15;;;;;;;2.65;1.80;;;;;;;16.17;83.10;99201.88;4920677;29;20052;-69
2022/05/25 04:48:45;;;;;;;1.67;1.17;;;;;;;16.19;83.20;99205.25;4920306;29;20056;-70
2022/05/25 04:51:14;;;;;;;1.50;1.13;;;;;;;16.14;83.45;99200.22;4920870;29;20040;-70
2022/05/25 04:53:44;;;;;;;1.35;1.25;;;;;;;16.16;83.39;99195.03;4920123;29;20421;-70
2022/05/25 04:58:52;;;;;;;1.85;1.50;;;;;;;16.28;83.63;99207.53;4920198;29;20096;-71
2022/05/25 05:01:23;;;;;;;1.25;1.10;;;;;;;16.33;83.96;99203.06;4920496;29;20578;-70
2022/05/25 05:03:55;;;;;;;0.85;0.82;;;;;;;16.35;84.30;99201.28;4903057;29;20060;-71
2022/05/25 05:06:24;;;;;;;2.03;1.70;;;;;;;16.36;84.50;99206.41;4919203;29;20056;-70
2022/05/25 05:08:53;;;;;;;2.05;1.75;;;;;;;16.35;84.48;99206.44;4919552;29;20570;-70
2022/05/25 05:11:22;;;;;;;5.47;2.63;;;;;;;16.41;84.99;99208.84;4920074;29;20143;-71
2022/05/25 05:13:51;;;;;;;5.50;2.92;;;;;;;16.47;84.92;99203.47;4919910;29;20451;-71
2022/05/25 05:16:22;;;;;;;3.72;1.88;;;;;;;16.48;85.24;99197.44;4903148;29;20066;-70
2022/05/25 05:19:06;;;;;;;1.30;1.20;;;;;;;16.53;85.26;99196.41;4918734;29;20048;-70
2022/05/25 05:21:46;;;;;;;1.65;1.33;;;;;;;16.68;84.80;99200.22;4920036;29;20559;-70
2022/05/25 05:24:15;;;;;;;4.97;2.78;;;;;;;16.76;85.00;99198.25;4919511;29;20531;-70
2022/05/25 05:26:45;;;;;;;1.38;1.27;;;;;;;16.84;84.54;99206.56;4919695;29;20083;-70
2022/05/25 05:29:14;;;;;;;1.27;1.17;;;;;;;16.54;84.39;99145.72;4919436;29;20094;-72
2022/05/25 05:31:45;;;;;;;0.90;0.90;;;;;;;16.92;83.84;99190.81;4919591;29;20452;-71
2022/05/25 05:34:14;;;;;;;1.73;1.63;;;;;;;16.92;83.48;99194.25;4918392;29;20060;-72
2022/05/25 05:36:47;;;;;;;2.53;1.73;;;;;;;16.98;83.54;99193.19;4919372;29;20547;-70
2022/05/25 05:39:19;;;;;;;1.35;1.10;;;;;;;17.03;83.25;99202.47;4919893;29;20102;-70
2022/05/25 05:41:52;;;;;;;2.13;0.95;;;;;;;17.12;82.86;99204.72;4919755;29;20080;-71
2022/05/25 05:44:25;;;;;;;2.42;1.52;;;;;;;16.96;82.69;99180.38;4919047;29;20052;-70
2022/05/25 05:47:01;;;;;;;1.45;1.35;;;;;;;17.19;82.43;99208.78;4919228;29;20052;-70
2022/05/25 05:49:30;;;;;;;1.73;1.60;;;;;;;17.22;82.42;99207.81;4919218;29;20048;-70
2022/05/25 05:52:00;;;;;;;0.65;0.65;;;;;;;17.28;82.40;99208.44;4919104;29;20089;-69
2022/05/25 05:54:30;;;;;;;1.83;1.08;;;;;;;17.36;82.54;99215.91;4919186;29;20111;-70
2022/05/25 05:56:59;;;;;;;1.23;1.13;;;;;;;17.42;82.76;99211.38;4918898;29;20052;-70
2022/05/25 05:59:28;;;;;;;2.60;2.17;;;;;;;17.46;82.58;99217.28;4918950;29;20117;-70
2022/05/25 06:01:57;;;;;;;1.37;1.27;;;;;;;17.42;82.58;99206.22;4919067;29;20048;-69
2022/05/25 06:04:28;;;;;;;1.92;1.77;;;;;;;17.43;82.29;99213.06;4919086;29;20514;-69
2022/05/25 06:07:00;;;;;;;0.75;0.75;;;;;;;17.47;81.97;99218.13;4919039;29;20052;-70
2022/05/25 06:09:29;;;;;;;1.02;0.93;;;;;;;17.52;81.89;99213.66;4918853;29;20510;-70
2022/05/25 06:11:58;;;;;;;0.95;0.90;;;;;;;17.55;81.79;99210.97;4919109;29;20483;-70
2022/05/25 06:14:27;;;;;;;1.38;1.27;;;;;;;17.51;81.21;99219.69;4918691;29;20103;-69
2022/05/25 06:19:37;;;;;;;2.42;2.03;;;;;;;17.48;81.02;99222.38;4918559;29;20048;-69
2022/05/25 06:22:10;;;;;;;1.13;1.02;;;;;;;17.48;80.76;99230.13;4918520;29;20517;-69
2022/05/25 06:24:42;;;;;;;2.17;1.70;;;;;;;17.54;80.46;99235.09;4918800;29;20127;-69
2022/05/25 06:27:12;;;;;;;1.10;1.00;;;;;;;17.56;79.92;99228.13;4901556;29;20079;-69
2022/05/25 06:29:44;;;;;;;3.40;1.58;;;;;;;17.44;79.22;99204.41;4918857;29;20502;-69
2022/05/25 06:32:15;;;;;;;0.85;0.85;;;;;;;17.57;79.67;99227.22;4918500;29;20052;-69
2022/05/25 06:34:47;;;;;;;2.47;2.03;;;;;;;17.62;79.67;99221.00;4918685;29;20059;-69
2022/05/25 06:37:19;;;;;;;1.60;1.30;;;;;;;17.70;79.70;99225.91;4918039;29;20052;-69
2022/05/25 06:39:49;;;;;;;1.67;1.42;;;;;;;17.84;79.69;99233.97;4918510;29;20147;-68
2022/05/25 06:42:19;;;;;;;1.63;1.15;;;;;;;17.97;79.44;99240.38;4918077;29;20412;-69
2022/05/25 06:44:54;;;;;;;2.53;1.50;;;;;;;18.00;79.03;99247.97;4918399;29;20055;-68
2022/05/25 06:47:23;;;;;;;1.50;1.40;;;;;;;17.98;78.69;99242.03;4918185;29;20381;-68
2022/05/25 06:49:55;;;;;;;1.83;1.60;;;;;;;18.01;78.49;99242.78;4918718;29;20103;-69
2022/05/25 06:52:24;;;;;;;1.20;1.10;;;;;;;18.08;78.34;99240.78;4917803;29;20048;-68
2022/05/25 06:54:54;;;;;;;4.07;1.47;;;;;;;18.15;78.01;99234.50;4918452;29;20409;-69
2022/05/25 06:57:25;;;;;;;1.15;0.82;;;;;;;18.35;78.02;99242.31;4917382;29;20059;-68
2022/05/25 06:59:54;;;;;;;1.65;1.55;;;;;;;18.30;77.36;99244.25;4918219;29;20044;-68
2022/05/25 07:02:24;;;;;;;1.48;1.38;;;;;;;18.45;77.37;99251.38;4917583;29;20048;-68
2022/05/25 07:04:54;;;;;;;1.20;0.98;;;;;;;18.51;77.04;99251.19;4918439;29;20052;-68
2022/05/25 07:07:30;;;;;;;2.33;2.08;;;;;;;18.61;76.78;99262.00;4917734;29;20056;-68
2022/05/25 07:09:59;;;;;;;2.55;2.35;;;;;;;18.63;76.60;99276.53;4917853;29;20116;-69
2022/05/25 07:12:31;;;;;;;4.03;1.77;;;;;;;18.50;76.35;99275.31;4917866;29;20071;-68
2022/05/25 07:15:00;;;;;;;1.33;1.23;;;;;;;18.52;76.29;99265.75;4917448;29;20044;-68
2022/05/25 07:17:32;;;;;;;1.05;0.95;;;;;;;18.53;75.88;99254.53;4917686;29;20056;-68
2022/05/25 07:20:02;;;;;;;1.95;1.60;;;;;;;18.42;75.49;99261.00;4917968;29;20079;-68
2022/05/25 07:22:31;;;;;;;1.25;1.15;;;;;;;18.42;75.54;99264.44;4917737;29;20402;-68
2022/05/25 07:25:00;;;;;;;1.63;1.53;;;;;;;18.45;75.60;99253.94;4917667;29;20049;-69
2022/05/25 07:27:29;;;;;;;1.23;0.90;;;;;;;18.43;75.78;99266.09;4917222;29;20287;-68
2022/05/25 07:29:58;;;;;;;1.87;1.30;;;;;;;18.30;76.24;99276.97;4917509;29;20558;-68
2022/05/25 07:32:27;;;;;;;3.88;2.15;;;;;;;18.29;76.63;99283.88;4917155;29;20055;-68
2022/05/25 07:35:00;;;;;;;;;;;;;;;18.27;77.09;99285.69;4917920;29;20402;-68
2022/05/25 07:37:37;;;;;;;1.73;1.63;;;;;;;18.23;77.78;99284.13;4916968;29;20006;-68
2022/05/25 07:40:12;;;;;;;0.80;0.80;;;;;;;18.27;78.19;99280.53;4917509;29;20044;-68
2022/05/25 07:42:44;;;;;;;5.50;1.92;;;;;;;18.35;78.52;99293.16;4916948;29;20056;-68
2022/05/25 07:45:13;;;;;;;3.42;2.55;;;;;;;18.26;78.39;99284.00;4917572;29;20067;-68
2022/05/25 07:47:42;;;;;;;2.67;2.23;;;;;;;18.32;78.54;99278.59;4916878;29;20048;-69
2022/05/25 07:50:11;;;;;;;1.35;1.10;;;;;;;18.40;78.52;99293.81;4917066;29;20052;-69
2022/05/25 07:52:42;;;;;;;1.95;1.15;;;;;;;18.46;78.47;99297.03;4916729;29;20049;-68
2022/05/25 07:55:12;;;;;;;1.42;1.33;;;;;;;18.52;78.64;99307.13;4917405;29;20496;-69
2022/05/25 07:57:41;;;;;;;2.13;1.80;;;;;;;18.59;78.97;99312.91;4916903;29;20123;-69
2022/05/25 08:00:13;;;;;;;2.45;1.38;;;;;;;18.62;79.22;99316.22;4917162;29;20068;-69
2022/05/25 08:08:10;;;;;;;1.42;1.33;;;;;;;18.61;78.85;99330.06;4916386;29;20075;-69
2022/05/25 08:10:39;;;;;;;2.80;2.28;;;;;;;18.55;78.78;99326.84;4917189;29;20100;-69
2022/05/25 08:13:09;;;;;;;3.03;1.48;;;;;;;18.49;78.83;99333.13;4916140;29;20064;-69
2022/05/25 08:15:42;;;;;;;1.10;0.98;;;;;;;18.47;78.69;99334.91;4917222;29;20047;-69
2022/05/25 08:18:12;;;;;;;1.33;1.20;;;;;;;18.51;78.62;99328.72;4916207;29;20059;-68
2022/05/25 08:20:41;;;;;;;2.17;1.85;;;;;;;18.56;78.59;99315.63;4917291;29;20399;-69
2022/05/25 08:23:14;;;;;;;2.25;1.73;;;;;;;18.55;78.35;99294.09;4916077;29;20083;-68
2022/05/25 08:25:45;;;;;;;1.45;1.23;;;;;;;18.40;78.24;99266.25;4915719;29;20059;-69
2022/05/25 08:28:14;;;;;;;3.88;1.40;;;;;;;18.72;77.92;99302.03;4916301;29;20048;-68
2022/05/25 08:30:45;;;;;;;1.70;1.02;;;;;;;18.87;77.71;99299.72;4917029;29;20056;-68
2022/05/25 08:33:17;;;;;;;1.60;1.38;;;;;;;18.94;77.12;99290.81;4916113;29;20075;-68
2022/05/25 08:35:46;;;;;;;2.05;1.73;;;;;;;19.07;76.66;99289.41;4916688;29;20067;-68
2022/05/25 08:38:21;;;;;;;1.57;1.37;;;;;;;19.13;75.80;99294.31;4915551;29;20059;-69
2022/05/25 08:40:52;;;;;;;1.65;1.17;;;;;;;19.23;74.50;99295.63;4916839;29;20052;-68
2022/05/25 08:43:25;;;;;;;1.25;1.15;;;;;;;19.23;74.44;99295.63;4899388;29;20103;-69
2022/05/25 08:45:59;;;;;;;0.70;0.70;;;;;;;19.28;74.39;99291.09;4916994;29;20148;-68
2022/05/25 08:48:30;;;;;;;1.55;1.45;;;;;;;19.36;73.33;99299.44;4916075;29;20514;-69
2022/05/25 08:51:01;;;;;;;0.60;0.60;;;;;;;19.55;72.79;99300.31;4916780;29;20052;-69
2022/05/25 08:53:37;;;;;;;0.80;0.80;;;;;;;19.64;71.95;99299.06;4915873;29;20063;-69
2022/05/25 08:56:19;;;;;;;1.75;1.33;;;;;;;19.78;71.47;99296.72;4916613;29;20060;-68
2022/05/25 08:58:51;;;;;;;0.70;0.70;;;;;;;19.83;70.45;99293.03;4915975;29;20086;-69
2022/05/25 09:01:26;;;;;;;1.08;0.98;;;;;;;20.08;69.25;99303.94;4916858;29;20455;-68
2022/05/25 09:04:04;;;;;;;1.02;0.93;;;;;;;20.28;68.54;99315.19;4915890;29;20056;-68
2022/05/25 09:06:44;;;;;;;1.13;1.02;;;;;;;20.30;67.82;99311.63;4916866;29;20502;-68
2022/05/25 09:09:24;;;;;;;8.35;1.52;;;;;;;20.24;67.38;99303.28;4915828;29;20060;-68
2022/05/25 09:11:58;;;;;;;1.38;1.13;;;;;;;20.21;67.05;99306.81;4916807;29;20418;-68
2022/05/25 09:14:32;;;;;;;1.13;1.02;;;;;;;20.29;67.60;99312.53;4916041;29;20056;-68
2022/05/25 09:17:07;;;;;;;0.50;0.50;;;;;;;20.36;67.63;99318.28;4916838;29;20145;-68
2022/05/25 09:19:41;;;;;;;0.60;0.60;;;;;;;20.26;67.57;99322.19;4917694;29;20139;-68
2022/05/25 09:22:14;;;;;;;0.90;0.90;;;;;;;20.25;68.27;99323.13;4919898;29;20068;-68
2022/05/25 09:24:44;;;;;;;2.33;1.65;;;;;;;20.08;68.22;99299.69;4920022;29;20402;-68
2022/05/25 09:27:17;;;;;;;0.95;0.85;;;;;;;19.93;68.44;99270.13;4920082;29;20063;-67
2022/05/25 09:29:46;;;;;;;1.15;1.05;;;;;;;20.15;68.08;99316.66;4919580;29;20450;-68
2022/05/25 09:32:35;;;;;;;1.05;0.93;;;;;;;20.33;68.06;99324.44;4919771;29;20099;-68
2022/05/25 09:35:08;;;;;;;;;;;;;;;20.49;68.23;99312.44;4920019;29;20064;-68
2022/05/25 09:37:44;;;;;;;1.23;1.00;;;;;;;20.54;67.78;99318.25;4919456;29;20369;-69
2022/05/25 09:40:21;;;;;;;1.10;0.88;;;;;;;20.70;67.48;99327.00;4919357;29;20056;-70
2022/05/25 09:42:53;;;;;;;1.65;1.02;;;;;;;20.81;67.21;99326.47;4919328;29;20454;-69
2022/05/25 09:45:23;;;;;;;0.70;0.70;;;;;;;20.88;67.15;99325.28;4919454;29;20052;-70
2022/05/25 09:47:52;;;;;;;;;;;;;;;21.06;66.77;99327.03;4919706;29;20490;-70
2022/05/25 09:50:33;;;;;;;1.02;0.93;;;;;;;21.10;66.36;99312.97;4919227;29;19927;-69
2022/05/25 09:53:07;;;;;;;1.63;1.00;;;;;;;21.28;66.46;99317.25;4918976;29;20063;-71
2022/05/25 09:55:42;;;;;;;1.65;0.90;;;;;;;21.31;65.82;99317.09;4919846;29;20052;-69
2022/05/25 09:58:21;;;;;;;3.30;1.65;;;;;;;21.57;65.96;99307.97;4918569;29;20056;-69
2022/05/25 10:00:57;;;;;;;1.70;0.90;;;;;;;21.62;65.41;99294.78;4919417;29;20052;-69
2022/05/25 10:03:38;;;;;;;1.42;1.33;;;;;;;21.91;65.19;99317.50;4917707;29;20059;-69
2022/05/25 10:06:20;;;;;;;0.93;0.75;;;;;;;21.99;64.73;99317.94;4919333;29;20413;-69
2022/05/25 10:08:53;;;;;;;0.57;0.57;;;;;;;21.94;63.98;99322.53;4918441;29;20080;-69
2022/05/25 10:11:32;;;;;;;0.93;0.85;;;;;;;21.79;63.71;99312.91;4919120;29;20056;-69
2022/05/25 10:14:23;;;;;;;1.27;1.00;;;;;;;21.73;64.24;99318.44;4918509;29;20525;-70
2022/05/25 10:16:53;;;;;;;1.25;1.15;;;;;;;21.88;64.67;99320.28;4919330;29;20047;-69
2022/05/25 10:19:23;;;;;;;0.95;0.85;;;;;;;21.86;64.10;99317.72;4918441;29;20056;-69
2022/05/25 10:21:54;;;;;;;0.85;0.75;;;;;;;21.73;63.86;99319.28;4902294;29;20056;-69
2022/05/25 10:24:27;;;;;;;0.80;0.80;;;;;;;21.71;64.19;99320.28;4918030;29;20088;-69
2022/05/25 10:26:59;;;;;;;1.90;1.40;;;;;;;21.60;64.25;99327.75;4919057;29;20052;-70
2022/05/25 10:37:53;;;;;;;1.30;1.17;;;;;;;21.33;65.24;99325.63;4930181;29;20059;-69
2022/05/25 10:40:26;;;;;;;0.60;0.60;;;;;;;21.50;64.84;99321.38;4937356;29;20098;-69
2022/05/25 10:43:01;;;;;;;0.80;0.80;;;;;;;21.58;64.74;99327.00;4937629;29;20532;-69
2022/05/25 10:45:38;;;;;;;1.42;1.23;;;;;;;21.59;64.73;99333.88;4937374;29;20062;-69
2022/05/25 10:48:19;;;;;;;1.38;0.90;;;;;;;21.50;64.50;99331.75;4937016;29;20078;-68
2022/05/25 10:50:55;;;;;;;0.80;0.70;;;;;;;21.56;64.21;99331.44;4937457;29;20048;-68
2022/05/25 10:54:44;;;;;;;1.42;1.30;;;;;;;21.33;64.31;99298.88;4936699;29;20529;-69
2022/05/25 10:56:45;;;;;;;1.52;1.27;;;;;;;21.38;64.93;99328.84;4937417;29;20411;-69
2022/05/25 10:59:25;;;;;;;1.27;1.17;;;;;;;21.29;64.99;99334.50;4936818;29;20131;-68
2022/05/25 11:02:12;;;;;;;0.85;0.85;;;;;;;21.30;65.40;99333.59;4937430;29;20047;-68
2022/05/25 11:05:03;;;;;;;1.40;1.15;;;;;;;21.21;65.61;99326.25;4936741;29;20083;-69
2022/05/25 11:07:35;;;;;;;0.68;0.68;;;;;;;21.22;66.01;99327.09;4937283;29;20063;-69
2022/05/25 11:10:37;;;;;;;1.35;1.00;;;;;;;21.22;65.84;99325.34;4936305;29;20056;-68
2022/05/25 11:13:31;;;;;;;9.43;1.65;;;;;;;21.22;65.98;99322.75;4936775;29;20060;-69
2022/05/25 11:16:11;;;;;;;1.00;0.93;;;;;;;21.23;65.19;99324.44;4937070;29;20070;-67
2022/05/25 11:19:06;;;;;;;1.15;0.90;;;;;;;21.56;64.89;99310.66;4936195;29;20062;-68
2022/05/25 11:21:42;;;;;;;0.65;0.65;;;;;;;21.90;63.95;99298.47;4937066;29;20099;-68
2022/05/25 11:24:28;;;;;;;3.58;1.98;;;;;;;22.29;63.12;99307.66;4935946;29;20056;-68
2022/05/25 11:27:12;;;;;;;1.25;1.13;;;;;;;22.07;62.55;99307.13;4937468;29;20082;-69
2022/05/25 11:30:01;;;;;;;1.25;1.08;;;;;;;21.88;62.90;99281.28;4935834;29;20051;-67
2022/05/25 11:32:46;;;;;;;2.05;1.15;;;;;;;22.01;62.78;99303.09;4936956;29;20060;-69
2022/05/25 11:35:32;;;;;;;1.08;0.98;;;;;;;21.85;63.13;99302.22;4936150;29;20483;-70
2022/05/25 11:38:17;;;;;;;1.65;1.20;;;;;;;21.65;63.56;99308.44;4936248;29;20427;-69
2022/05/25 11:40:55;;;;;;;1.17;1.08;;;;;;;21.55;63.80;99317.59;4936220;29;20142;-69
2022/05/25 11:43:52;;;;;;;1.27;0.98;;;;;;;21.55;64.57;99307.22;4935846;29;20414;-69
2022/05/25 11:46:34;;;;;;;0.88;0.88;;;;;;;21.62;64.64;99307.75;4931576;29;20143;-69
2022/05/25 11:49:37;;;;;;;1.88;1.13;;;;;;;21.80;65.42;99306.78;4935646;29;20048;-70
2022/05/25 11:52:24;;;;;;;1.40;1.10;;;;;;;22.03;65.03;99307.28;4936491;29;20048;-70
2022/05/25 11:55:08;;;;;;;0.95;0.88;;;;;;;22.19;64.45;99312.53;4935842;29;20107;-70
2022/05/25 11:57:50;;;;;;;1.10;1.00;;;;;;;22.26;63.75;99308.66;4936502;29;20498;-70
2022/05/25 12:00:30;;;;;;;1.33;1.10;;;;;;;22.25;63.66;99306.97;4935297;29;20056;-68
2022/05/25 12:03:18;;;;;;;1.23;0.90;;;;;;;22.16;63.87;99299.69;4935886;29;20071;-71
2022/05/25 12:06:05;;;;;;;1.42;1.17;;;;;;;22.07;63.78;99307.97;4936269;29;20494;-70
2022/05/25 12:08:47;;;;;;;1.42;1.33;;;;;;;22.01;63.66;99305.69;4935581;29;20051;-70
2022/05/25 12:11:32;;;;;;;1.30;1.17;;;;;;;22.09;64.23;99308.72;4936214;29;20062;-70
2022/05/25 12:14:29;;;;;;;2.80;1.90;;;;;;;22.01;64.38;99287.50;4935262;29;20048;-70
2022/05/25 12:17:10;;;;;;;1.17;0.95;;;;;;;22.10;64.85;99307.78;4919295;29;20056;-70
2022/05/25 12:19:49;;;;;;;0.80;0.80;;;;;;;22.04;65.21;99308.13;4935414;29;20072;-69
2022/05/25 12:22:25;;;;;;;5.78;1.23;;;;;;;22.01;65.20;99310.88;4936026;29;20052;-70
2022/05/25 12:24:59;;;;;;;1.77;1.23;;;;;;;21.92;64.99;99301.84;4935203;29;20462;-69
2022/05/25 12:27:40;;;;;;;2.05;1.73;;;;;;;21.88;64.64;99296.88;4934904;29;20142;-69
2022/05/25 12:30:13;;;;;;;1.55;0.85;;;;;;;21.92;64.50;99293.19;4935000;29;20047;-69
2022/05/25 12:32:43;;;;;;;1.02;0.93;;;;;;;21.96;64.76;99290.34;4936039;29;20060;-70